Mobile, AL (36601)

7:39 AM CDT on July 25, 2016 (GMT -0500)
Downtown Waterfront | | Change Station

Elev 13 ft 30.69 °N, 88.04 °W | Updated 39 seconds ago

Mostly Cloudy
Mostly Cloudy
78.6 °F
Feels Like 82 °F
N
4.0
Wind Variable Wind from ENE
Gusts 14.0 mph

Today
High -- | Low -- °F
--% Chance of Precip.
Yesterday
High -- | Low -- °F
Precip. -- in
Pressure 30.01 in
Visibility 10.0 miles
Clouds Scattered Clouds 3800 ft
Scattered Clouds 4500 ft
Mostly Cloudy 5000 ft
Heat Index 82 °F
Dew Point 75 °F
Humidity 88%
Rainfall 0.00 in
Snow Depth Not available.
6:05 AM 7:51 PM
Waning Gibbous, 66% visible
METAR KBFM 251153Z 06008KT 10SM SCT038 SCT045 BKN050 27/26 A3001 RMK AO2 SLP161 70011 T02720256 10278 20267 53017
Pressure 30.01 in
Visibility 10.0 miles
Clouds Scattered Clouds 3800 ft
Scattered Clouds 4500 ft
Mostly Cloudy 5000 ft
Heat Index 82 °F
Dew Point 75 °F
Humidity 88%
Rainfall 0.00 in
Snow Depth Not available.
6:05 AM 7:51 PM
Waning Gibbous, 66% visible
METAR KBFM 251153Z 06008KT 10SM SCT038 SCT045 BKN050 27/26 A3001 RMK AO2 SLP161 70011 T02720256 10278 20267 53017

10-Day Weather Forecast

Almanac

Astronomy

Jul. 25, 2016 Rise Set
Actual Time
Civil Twilight
Nautical Twilight
Astronomical Twilight
Moon
Length of Visible Light
Length of Day
Tomorrow will be .
, % of the Moon is Illuminated

Today's Extremes

State Highs State Lows

Community

WunderPhotos

Upload Photos

1,927,296 photos uploaded!

WunderBlog® & News

Nearby

Air Quality

  Air Quality AQ Index Pollutant
Not available.

Snow Depth

Station Depth Elevation

Earthquake Activity

City Distance Mag. Time & Date
Minimum magnitude displayed is 2.5.

Coastal Water Temperatures

Place Temperature

Stations

Nearby Weather Stations

Station Location Temp. Windchill Dew Point Humidity Wind Precip. Elev Updated Type
                   

Watches & Warnings

There are currently no watches in effect.